sensor_id;sensor_type;location;lat;lon;timestamp;temperature;humidity
31735;DHT22;18313;48.518;9.124;2023-05-07T00:02:01;15.10;99.90
31735;DHT22;18313;48.518;9.124;2023-05-07T00:04:32;15.00;99.90
31735;DHT22;18313;48.518;9.124;2023-05-07T00:07:03;15.00;99.90
31735;DHT22;18313;48.518;9.124;2023-05-07T00:09:30;15.00;99.90
31735;DHT22;18313;48.518;9.124;2023-05-07T00:11:58;14.90;99.90
31735;DHT22;18313;48.518;9.124;2023-05-07T00:14:25;14.90;99.90
31735;DHT22;18313;48.518;9.124;2023-05-07T00:16:52;14.80;99.90
31735;DHT22;18313;48.518;9.124;2023-05-07T00:19:19;14.70;99.90
31735;DHT22;18313;48.518;9.124;2023-05-07T00:21:46;14.80;99.90
31735;DHT22;18313;48.518;9.124;2023-05-07T00:24:13;14.60;99.90
31735;DHT22;18313;48.518;9.124;2023-05-07T00:26:40;14.60;99.90
31735;DHT22;18313;48.518;9.124;2023-05-07T00:29:07;14.50;99.90
31735;DHT22;18313;48.518;9.124;2023-05-07T00:31:34;14.50;99.90
31735;DHT22;18313;48.518;9.124;2023-05-07T00:34:02;14.50;99.90
31735;DHT22;18313;48.518;9.124;2023-05-07T00:36:29;14.50;99.90
31735;DHT22;18313;48.518;9.124;2023-05-07T00:38:58;14.50;99.90
31735;DHT22;18313;48.518;9.124;2023-05-07T00:41:26;14.50;99.90
31735;DHT22;18313;48.518;9.124;2023-05-07T00:43:53;14.40;99.90
31735;DHT22;18313;48.518;9.124;2023-05-07T00:46:23;14.40;99.90
31735;DHT22;18313;48.518;9.124;2023-05-07T00:48:50;14.40;99.90
31735;DHT22;18313;48.518;9.124;2023-05-07T00:51:18;14.50;99.90
31735;DHT22;18313;48.518;9.124;2023-05-07T00:53:45;14.50;99.90
31735;DHT22;18313;48.518;9.124;2023-05-07T00:56:13;14.40;99.90
31735;DHT22;18313;48.518;9.124;2023-05-07T00:58:40;14.40;99.90
31735;DHT22;18313;48.518;9.124;2023-05-07T01:01:07;14.40;99.90
31735;DHT22;18313;48.518;9.124;2023-05-07T01:03:34;14.20;99.90
31735;DHT22;18313;48.518;9.124;2023-05-07T01:06:02;14.20;99.90
31735;DHT22;18313;48.518;9.124;2023-05-07T01:08:31;14.20;99.90
31735;DHT22;18313;48.518;9.124;2023-05-07T01:10:59;14.20;99.90
31735;DHT22;18313;48.518;9.124;2023-05-07T01:13:27;14.20;99.90
31735;DHT22;18313;48.518;9.124;2023-05-07T01:15:55;14.10;99.90
31735;DHT22;18313;48.518;9.124;2023-05-07T01:18:22;14.10;99.90
31735;DHT22;18313;48.518;9.124;2023-05-07T01:20:49;14.00;99.90
31735;DHT22;18313;48.518;9.124;2023-05-07T01:23:16;14.00;99.90
31735;DHT22;18313;48.518;9.124;2023-05-07T01:25:54;13.90;99.90
31735;DHT22;18313;48.518;9.124;2023-05-07T01:28:21;13.90;99.90
31735;DHT22;18313;48.518;9.124;2023-05-07T01:30:55;13.80;99.90
31735;DHT22;18313;48.518;9.124;2023-05-07T01:33:23;13.80;99.90
31735;DHT22;18313;48.518;9.124;2023-05-07T01:35:52;13.80;99.90
31735;DHT22;18313;48.518;9.124;2023-05-07T01:38:21;13.70;99.90
31735;DHT22;18313;48.518;9.124;2023-05-07T01:40:49;13.70;99.90
31735;DHT22;18313;48.518;9.124;2023-05-07T01:43:17;13.60;99.90
31735;DHT22;18313;48.518;9.124;2023-05-07T01:45:45;13.60;99.90
31735;DHT22;18313;48.518;9.124;2023-05-07T01:48:14;13.60;99.90
31735;DHT22;18313;48.518;9.124;2023-05-07T01:50:43;13.60;99.90
31735;DHT22;18313;48.518;9.124;2023-05-07T01:53:11;13.60;99.90
31735;DHT22;18313;48.518;9.124;2023-05-07T01:55:38;13.60;99.90
31735;DHT22;18313;48.518;9.124;2023-05-07T01:58:05;13.50;99.90
31735;DHT22;18313;48.518;9.124;2023-05-07T02:00:32;13.40;99.90
31735;DHT22;18313;48.518;9.124;2023-05-07T02:02:59;13.40;99.90
31735;DHT22;18313;48.518;9.124;2023-05-07T02:05:26;13.40;99.90
31735;DHT22;18313;48.518;9.124;2023-05-07T02:07:53;13.30;99.90
31735;DHT22;18313;48.518;9.124;2023-05-07T02:10:20;13.40;99.90
31735;DHT22;18313;48.518;9.124;2023-05-07T02:12:47;13.20;99.90
31735;DHT22;18313;48.518;9.124;2023-05-07T02:15:15;13.10;99.90
31735;DHT22;18313;48.518;9.124;2023-05-07T02:18:00;13.10;99.90
31735;DHT22;18313;48.518;9.124;2023-05-07T02:20:28;13.00;99.90
31735;DHT22;18313;48.518;9.124;2023-05-07T02:22:55;13.20;99.90
31735;DHT22;18313;48.518;9.124;2023-05-07T02:25:22;13.30;99.90
31735;DHT22;18313;48.518;9.124;2023-05-07T02:27:49;13.20;99.90
31735;DHT22;18313;48.518;9.124;2023-05-07T02:30:16;13.20;99.90
31735;DHT22;18313;48.518;9.124;2023-05-07T02:32:43;13.10;99.90
31735;DHT22;18313;48.518;9.124;2023-05-07T02:35:11;13.00;99.90
31735;DHT22;18313;48.518;9.124;2023-05-07T02:37:38;13.00;99.90
31735;DHT22;18313;48.518;9.124;2023-05-07T02:40:06;13.00;99.90
31735;DHT22;18313;48.518;9.124;2023-05-07T02:42:33;12.90;99.90
31735;DHT22;18313;48.518;9.124;2023-05-07T02:45:00;12.90;99.90
31735;DHT22;18313;48.518;9.124;2023-05-07T02:47:27;12.80;99.90
31735;DHT22;18313;48.518;9.124;2023-05-07T02:49:55;12.80;99.90
31735;DHT22;18313;48.518;9.124;2023-05-07T02:52:22;12.80;99.90
31735;DHT22;18313;48.518;9.124;2023-05-07T02:54:49;12.80;99.90
31735;DHT22;18313;48.518;9.124;2023-05-07T02:57:16;12.70;99.90
31735;DHT22;18313;48.518;9.124;2023-05-07T02:59:43;12.70;99.90
31735;DHT22;18313;48.518;9.124;2023-05-07T03:02:10;12.60;99.90
31735;DHT22;18313;48.518;9.124;2023-05-07T03:04:40;12.60;99.90
31735;DHT22;18313;48.518;9.124;2023-05-07T03:07:07;12.50;99.90
31735;DHT22;18313;48.518;9.124;2023-05-07T03:09:34;12.50;99.90
31735;DHT22;18313;48.518;9.124;2023-05-07T03:12:01;12.50;99.90
31735;DHT22;18313;48.518;9.124;2023-05-07T03:14:28;12.50;99.90
31735;DHT22;18313;48.518;9.124;2023-05-07T03:16:56;12.40;99.90
31735;DHT22;18313;48.518;9.124;2023-05-07T03:19:23;12.30;99.90
31735;DHT22;18313;48.518;9.124;2023-05-07T03:21:50;12.20;99.90
31735;DHT22;18313;48.518;9.124;2023-05-07T03:24:17;12.10;99.90
31735;DHT22;18313;48.518;9.124;2023-05-07T03:26:44;12.10;99.90
31735;DHT22;18313;48.518;9.124;2023-05-07T03:29:12;12.00;99.90
31735;DHT22;18313;48.518;9.124;2023-05-07T03:31:39;12.00;99.90
31735;DHT22;18313;48.518;9.124;2023-05-07T03:34:06;12.00;99.90
31735;DHT22;18313;48.518;9.124;2023-05-07T03:36:34;12.00;99.90
31735;DHT22;18313;48.518;9.124;2023-05-07T03:39:01;11.90;99.90
31735;DHT22;18313;48.518;9.124;2023-05-07T03:41:28;11.90;99.90
31735;DHT22;18313;48.518;9.124;2023-05-07T03:43:56;11.80;99.90
31735;DHT22;18313;48.518;9.124;2023-05-07T03:46:24;11.80;99.90
31735;DHT22;18313;48.518;9.124;2023-05-07T03:48:53;11.90;99.90
31735;DHT22;18313;48.518;9.124;2023-05-07T03:51:20;11.80;99.90
31735;DHT22;18313;48.518;9.124;2023-05-07T03:53:47;11.80;99.90
31735;DHT22;18313;48.518;9.124;2023-05-07T03:56:14;11.70;99.90
31735;DHT22;18313;48.518;9.124;2023-05-07T03:58:44;11.70;99.90
31735;DHT22;18313;48.518;9.124;2023-05-07T04:01:11;11.70;99.90
31735;DHT22;18313;48.518;9.124;2023-05-07T04:03:38;11.70;99.90
31735;DHT22;18313;48.518;9.124;2023-05-07T04:06:06;11.70;99.90
31735;DHT22;18313;48.518;9.124;2023-05-07T04:08:33;11.60;99.90
31735;DHT22;18313;48.518;9.124;2023-05-07T04:11:00;11.70;99.90
31735;DHT22;18313;48.518;9.124;2023-05-07T04:13:27;11.60;99.90
31735;DHT22;18313;48.518;9.124;2023-05-07T04:15:55;11.60;99.90
31735;DHT22;18313;48.518;9.124;2023-05-07T04:18:22;11.60;99.90
31735;DHT22;18313;48.518;9.124;2023-05-07T04:20:49;11.60;99.90
31735;DHT22;18313;48.518;9.124;2023-05-07T04:23:16;11.60;99.90
31735;DHT22;18313;48.518;9.124;2023-05-07T04:25:43;11.60;99.90
31735;DHT22;18313;48.518;9.124;2023-05-07T04:28:11;11.60;99.90
31735;DHT22;18313;48.518;9.124;2023-05-07T04:30:38;11.70;99.90
31735;DHT22;18313;48.518;9.124;2023-05-07T04:33:05;11.80;99.90
31735;DHT22;18313;48.518;9.124;2023-05-07T04:35:34;11.70;99.90
31735;DHT22;18313;48.518;9.124;2023-05-07T04:38:01;11.70;99.90
31735;DHT22;18313;48.518;9.124;2023-05-07T04:40:29;11.80;99.90
31735;DHT22;18313;48.518;9.124;2023-05-07T04:42:56;11.80;99.90
31735;DHT22;18313;48.518;9.124;2023-05-07T04:45:23;11.80;99.90
31735;DHT22;18313;48.518;9.124;2023-05-07T04:47:51;11.80;99.90
31735;DHT22;18313;48.518;9.124;2023-05-07T04:50:18;11.90;99.90
31735;DHT22;18313;48.518;9.124;2023-05-07T04:52:46;11.90;99.90
31735;DHT22;18313;48.518;9.124;2023-05-07T04:55:13;12.00;99.90
31735;DHT22;18313;48.518;9.124;2023-05-07T04:57:41;12.20;99.90
31735;DHT22;18313;48.518;9.124;2023-05-07T05:00:08;12.30;99.90
31735;DHT22;18313;48.518;9.124;2023-05-07T05:02:36;12.30;99.90
31735;DHT22;18313;48.518;9.124;2023-05-07T05:05:04;12.40;99.90
31735;DHT22;18313;48.518;9.124;2023-05-07T05:07:31;12.50;99.90
31735;DHT22;18313;48.518;9.124;2023-05-07T05:09:58;12.60;99.90
31735;DHT22;18313;48.518;9.124;2023-05-07T05:12:26;12.70;99.90
31735;DHT22;18313;48.518;9.124;2023-05-07T05:14:53;12.80;99.90
31735;DHT22;18313;48.518;9.124;2023-05-07T05:17:20;12.90;99.90
31735;DHT22;18313;48.518;9.124;2023-05-07T05:19:48;13.10;99.90
31735;DHT22;18313;48.518;9.124;2023-05-07T05:22:15;13.10;99.90
31735;DHT22;18313;48.518;9.124;2023-05-07T05:24:42;13.20;99.90
31735;DHT22;18313;48.518;9.124;2023-05-07T05:27:09;13.40;99.90
31735;DHT22;18313;48.518;9.124;2023-05-07T05:29:36;13.60;99.90
31735;DHT22;18313;48.518;9.124;2023-05-07T05:32:03;13.70;99.90
31735;DHT22;18313;48.518;9.124;2023-05-07T05:34:31;13.90;99.90
31735;DHT22;18313;48.518;9.124;2023-05-07T05:36:59;14.00;99.90
31735;DHT22;18313;48.518;9.124;2023-05-07T05:39:27;14.10;99.90
31735;DHT22;18313;48.518;9.124;2023-05-07T05:41:54;14.20;99.90
31735;DHT22;18313;48.518;9.124;2023-05-07T05:44:21;14.20;99.90
31735;DHT22;18313;48.518;9.124;2023-05-07T05:46:48;14.30;99.90
31735;DHT22;18313;48.518;9.124;2023-05-07T05:49:16;14.40;99.90
31735;DHT22;18313;48.518;9.124;2023-05-07T05:51:43;14.50;99.90
31735;DHT22;18313;48.518;9.124;2023-05-07T05:54:10;14.40;99.90
31735;DHT22;18313;48.518;9.124;2023-05-07T05:56:37;14.50;99.90
31735;DHT22;18313;48.518;9.124;2023-05-07T05:59:04;14.50;99.90
31735;DHT22;18313;48.518;9.124;2023-05-07T06:01:32;14.60;99.90
31735;DHT22;18313;48.518;9.124;2023-05-07T06:03:59;14.60;99.90
31735;DHT22;18313;48.518;9.124;2023-05-07T06:06:27;14.70;99.90
31735;DHT22;18313;48.518;9.124;2023-05-07T06:08:54;14.80;99.90
31735;DHT22;18313;48.518;9.124;2023-05-07T06:11:21;14.90;99.90
31735;DHT22;18313;48.518;9.124;2023-05-07T06:13:49;14.90;99.90
31735;DHT22;18313;48.518;9.124;2023-05-07T06:16:17;15.00;99.90
31735;DHT22;18313;48.518;9.124;2023-05-07T06:18:44;15.10;99.90
31735;DHT22;18313;48.518;9.124;2023-05-07T06:21:13;15.10;99.90
31735;DHT22;18313;48.518;9.124;2023-05-07T06:23:40;15.20;99.90
31735;DHT22;18313;48.518;9.124;2023-05-07T06:26:07;15.30;99.90
31735;DHT22;18313;48.518;9.124;2023-05-07T06:28:34;15.40;99.90
31735;DHT22;18313;48.518;9.124;2023-05-07T06:31:14;15.50;99.90
31735;DHT22;18313;48.518;9.124;2023-05-07T06:33:42;15.50;99.90
31735;DHT22;18313;48.518;9.124;2023-05-07T06:36:09;15.60;99.90
31735;DHT22;18313;48.518;9.124;2023-05-07T06:38:36;15.70;99.90
31735;DHT22;18313;48.518;9.124;2023-05-07T06:41:05;15.70;99.90
31735;DHT22;18313;48.518;9.124;2023-05-07T06:43:32;15.80;99.90
31735;DHT22;18313;48.518;9.124;2023-05-07T06:45:59;15.90;99.90
31735;DHT22;18313;48.518;9.124;2023-05-07T06:48:26;16.00;99.90
31735;DHT22;18313;48.518;9.124;2023-05-07T06:50:53;16.10;99.90
31735;DHT22;18313;48.518;9.124;2023-05-07T06:53:22;16.10;99.90
31735;DHT22;18313;48.518;9.124;2023-05-07T06:55:49;16.30;99.90
31735;DHT22;18313;48.518;9.124;2023-05-07T06:58:16;16.40;99.90
31735;DHT22;18313;48.518;9.124;2023-05-07T07:00:43;16.50;99.90
31735;DHT22;18313;48.518;9.124;2023-05-07T07:03:11;16.50;99.90
31735;DHT22;18313;48.518;9.124;2023-05-07T07:05:40;16.60;99.90
31735;DHT22;18313;48.518;9.124;2023-05-07T07:08:07;16.70;99.90
31735;DHT22;18313;48.518;9.124;2023-05-07T07:10:34;16.60;99.90
31735;DHT22;18313;48.518;9.124;2023-05-07T07:13:01;16.70;99.90
31735;DHT22;18313;48.518;9.124;2023-05-07T07:15:29;16.90;99.90
31735;DHT22;18313;48.518;9.124;2023-05-07T07:17:56;17.00;99.90
31735;DHT22;18313;48.518;9.124;2023-05-07T07:20:23;17.20;99.90
31735;DHT22;18313;48.518;9.124;2023-05-07T07:22:50;17.50;99.90
31735;DHT22;18313;48.518;9.124;2023-05-07T07:25:17;17.80;99.90
31735;DHT22;18313;48.518;9.124;2023-05-07T07:27:44;18.00;99.90
31735;DHT22;18313;48.518;9.124;2023-05-07T07:30:11;18.20;99.90
31735;DHT22;18313;48.518;9.124;2023-05-07T07:32:39;18.40;99.90
31735;DHT22;18313;48.518;9.124;2023-05-07T07:35:07;18.50;99.90
31735;DHT22;18313;48.518;9.124;2023-05-07T07:37:34;18.60;99.90
31735;DHT22;18313;48.518;9.124;2023-05-07T07:40:01;18.90;99.90
31735;DHT22;18313;48.518;9.124;2023-05-07T07:42:28;19.20;99.90
31735;DHT22;18313;48.518;9.124;2023-05-07T07:44:56;19.40;99.90
31735;DHT22;18313;48.518;9.124;2023-05-07T07:47:23;19.60;99.90
31735;DHT22;18313;48.518;9.124;2023-05-07T07:49:51;19.70;99.90
31735;DHT22;18313;48.518;9.124;2023-05-07T07:52:18;19.70;99.90
31735;DHT22;18313;48.518;9.124;2023-05-07T07:54:45;19.80;99.90
31735;DHT22;18313;48.518;9.124;2023-05-07T07:57:12;19.90;99.90
31735;DHT22;18313;48.518;9.124;2023-05-07T07:59:39;20.00;99.90
31735;DHT22;18313;48.518;9.124;2023-05-07T08:02:06;20.00;99.90
31735;DHT22;18313;48.518;9.124;2023-05-07T08:04:34;20.00;99.90
31735;DHT22;18313;48.518;9.124;2023-05-07T08:07:02;20.10;99.90
31735;DHT22;18313;48.518;9.124;2023-05-07T08:09:30;20.10;99.90
31735;DHT22;18313;48.518;9.124;2023-05-07T08:11:57;20.20;99.90
31735;DHT22;18313;48.518;9.124;2023-05-07T08:14:24;20.30;99.90
31735;DHT22;18313;48.518;9.124;2023-05-07T08:16:51;20.30;99.90
31735;DHT22;18313;48.518;9.124;2023-05-07T08:19:19;20.40;99.90
31735;DHT22;18313;48.518;9.124;2023-05-07T08:21:47;20.40;99.90
31735;DHT22;18313;48.518;9.124;2023-05-07T08:24:15;20.50;99.90
31735;DHT22;18313;48.518;9.124;2023-05-07T08:26:43;20.60;99.90
31735;DHT22;18313;48.518;9.124;2023-05-07T08:29:10;20.80;99.90
31735;DHT22;18313;48.518;9.124;2023-05-07T08:31:37;20.90;99.90
31735;DHT22;18313;48.518;9.124;2023-05-07T08:34:06;21.00;99.90
31735;DHT22;18313;48.518;9.124;2023-05-07T08:36:35;21.20;99.90
31735;DHT22;18313;48.518;9.124;2023-05-07T08:39:02;21.40;99.90
31735;DHT22;18313;48.518;9.124;2023-05-07T08:41:30;21.30;99.90
31735;DHT22;18313;48.518;9.124;2023-05-07T08:43:58;21.30;99.90
31735;DHT22;18313;48.518;9.124;2023-05-07T08:46:29;21.40;99.90
31735;DHT22;18313;48.518;9.124;2023-05-07T08:48:58;21.60;99.90
31735;DHT22;18313;48.518;9.124;2023-05-07T08:51:25;21.90;99.90
31735;DHT22;18313;48.518;9.124;2023-05-07T08:53:52;21.90;99.90
31735;DHT22;18313;48.518;9.124;2023-05-07T08:56:19;22.10;99.90
31735;DHT22;18313;48.518;9.124;2023-05-07T08:58:48;22.30;99.90
31735;DHT22;18313;48.518;9.124;2023-05-07T09:01:16;22.70;99.90
31735;DHT22;18313;48.518;9.124;2023-05-07T09:03:44;22.90;99.90
31735;DHT22;18313;48.518;9.124;2023-05-07T09:06:12;23.10;99.90
31735;DHT22;18313;48.518;9.124;2023-05-07T09:08:39;23.30;99.40
31735;DHT22;18313;48.518;9.124;2023-05-07T09:11:06;23.80;98.30
31735;DHT22;18313;48.518;9.124;2023-05-07T09:13:33;23.80;97.90
31735;DHT22;18313;48.518;9.124;2023-05-07T09:16:10;23.60;98.50
31735;DHT22;18313;48.518;9.124;2023-05-07T09:18:44;23.50;98.00
31735;DHT22;18313;48.518;9.124;2023-05-07T09:21:15;23.70;99.80
31735;DHT22;18313;48.518;9.124;2023-05-07T09:23:42;23.80;98.20
31735;DHT22;18313;48.518;9.124;2023-05-07T09:26:09;23.90;98.50
31735;DHT22;18313;48.518;9.124;2023-05-07T09:28:42;24.20;98.00
31735;DHT22;18313;48.518;9.124;2023-05-07T09:31:10;24.40;96.80
31735;DHT22;18313;48.518;9.124;2023-05-07T09:33:38;24.40;97.40
31735;DHT22;18313;48.518;9.124;2023-05-07T09:36:07;24.20;97.70
31735;DHT22;18313;48.518;9.124;2023-05-07T09:38:36;24.20;97.40
31735;DHT22;18313;48.518;9.124;2023-05-07T09:41:05;24.30;97.60
31735;DHT22;18313;48.518;9.124;2023-05-07T09:43:37;24.30;97.80
31735;DHT22;18313;48.518;9.124;2023-05-07T09:46:12;24.60;97.80
31735;DHT22;18313;48.518;9.124;2023-05-07T09:48:42;24.90;96.50
31735;DHT22;18313;48.518;9.124;2023-05-07T09:51:43;24.80;96.50
31735;DHT22;18313;48.518;9.124;2023-05-07T09:54:12;25.00;96.40
31735;DHT22;18313;48.518;9.124;2023-05-07T09:56:39;25.30;95.90
31735;DHT22;18313;48.518;9.124;2023-05-07T09:59:12;25.50;97.30
31735;DHT22;18313;48.518;9.124;2023-05-07T10:01:41;25.90;96.10
31735;DHT22;18313;48.518;9.124;2023-05-07T10:04:12;25.80;95.00
31735;DHT22;18313;48.518;9.124;2023-05-07T10:06:41;25.90;95.60
31735;DHT22;18313;48.518;9.124;2023-05-07T10:09:09;25.90;95.40
31735;DHT22;18313;48.518;9.124;2023-05-07T10:11:37;26.10;94.20
31735;DHT22;18313;48.518;9.124;2023-05-07T10:14:05;26.10;95.60
31735;DHT22;18313;48.518;9.124;2023-05-07T10:16:33;26.10;93.90
31735;DHT22;18313;48.518;9.124;2023-05-07T10:19:08;26.20;94.60
31735;DHT22;18313;48.518;9.124;2023-05-07T10:21:37;26.40;94.50
31735;DHT22;18313;48.518;9.124;2023-05-07T10:26:37;26.70;95.00
31735;DHT22;18313;48.518;9.124;2023-05-07T10:29:11;26.80;94.90
31735;DHT22;18313;48.518;9.124;2023-05-07T10:31:58;26.50;93.50
31735;DHT22;18313;48.518;9.124;2023-05-07T10:34:32;26.20;94.40
31735;DHT22;18313;48.518;9.124;2023-05-07T10:37:02;26.40;94.90
31735;DHT22;18313;48.518;9.124;2023-05-07T10:39:29;26.60;94.60
31735;DHT22;18313;48.518;9.124;2023-05-07T10:41:57;26.00;93.50
31735;DHT22;18313;48.518;9.124;2023-05-07T10:44:33;26.30;94.00
31735;DHT22;18313;48.518;9.124;2023-05-07T10:47:12;26.70;94.10
31735;DHT22;18313;48.518;9.124;2023-05-07T10:52:23;27.00;93.30
31735;DHT22;18313;48.518;9.124;2023-05-07T10:57:51;26.90;91.30
31735;DHT22;18313;48.518;9.124;2023-05-07T11:03:05;27.40;89.70
31735;DHT22;18313;48.518;9.124;2023-05-07T11:05:34;27.70;90.10
31735;DHT22;18313;48.518;9.124;2023-05-07T11:08:05;27.50;90.10
31735;DHT22;18313;48.518;9.124;2023-05-07T11:10:51;27.30;90.60
31735;DHT22;18313;48.518;9.124;2023-05-07T11:13:41;27.10;91.50
31735;DHT22;18313;48.518;9.124;2023-05-07T11:16:20;27.10;89.00
31735;DHT22;18313;48.518;9.124;2023-05-07T11:18:52;27.40;88.70
31735;DHT22;18313;48.518;9.124;2023-05-07T11:21:32;27.50;89.40
31735;DHT22;18313;48.518;9.124;2023-05-07T11:24:00;27.50;89.70
31735;DHT22;18313;48.518;9.124;2023-05-07T11:26:29;27.30;87.50
31735;DHT22;18313;48.518;9.124;2023-05-07T11:28:57;27.20;87.90
31735;DHT22;18313;48.518;9.124;2023-05-07T11:31:27;27.00;90.20
31735;DHT22;18313;48.518;9.124;2023-05-07T11:33:55;26.60;90.50
31735;DHT22;18313;48.518;9.124;2023-05-07T11:36:23;26.70;87.50
31735;DHT22;18313;48.518;9.124;2023-05-07T11:38:50;27.00;90.30
31735;DHT22;18313;48.518;9.124;2023-05-07T11:41:17;27.10;90.10
31735;DHT22;18313;48.518;9.124;2023-05-07T11:43:57;26.90;90.60
31735;DHT22;18313;48.518;9.124;2023-05-07T11:46:24;26.90;91.30
31735;DHT22;18313;48.518;9.124;2023-05-07T11:48:52;26.80;91.30
31735;DHT22;18313;48.518;9.124;2023-05-07T11:51:20;26.70;91.80
31735;DHT22;18313;48.518;9.124;2023-05-07T11:53:50;26.60;92.00
31735;DHT22;18313;48.518;9.124;2023-05-07T11:56:18;26.40;92.10
31735;DHT22;18313;48.518;9.124;2023-05-07T11:58:47;26.20;92.30
31735;DHT22;18313;48.518;9.124;2023-05-07T12:01:14;25.90;93.50
31735;DHT22;18313;48.518;9.124;2023-05-07T12:03:44;25.70;93.80
31735;DHT22;18313;48.518;9.124;2023-05-07T12:06:14;25.40;95.10
31735;DHT22;18313;48.518;9.124;2023-05-07T12:08:43;24.90;94.10
31735;DHT22;18313;48.518;9.124;2023-05-07T12:11:15;24.40;95.10
31735;DHT22;18313;48.518;9.124;2023-05-07T12:13:44;24.20;95.80
31735;DHT22;18313;48.518;9.124;2023-05-07T12:16:12;24.00;95.60
31735;DHT22;18313;48.518;9.124;2023-05-07T12:18:40;24.00;95.90
31735;DHT22;18313;48.518;9.124;2023-05-07T12:21:07;23.60;95.90
31735;DHT22;18313;48.518;9.124;2023-05-07T12:23:36;23.40;96.00
31735;DHT22;18313;48.518;9.124;2023-05-07T12:26:03;23.20;97.70
31735;DHT22;18313;48.518;9.124;2023-05-07T12:28:37;23.10;97.40
31735;DHT22;18313;48.518;9.124;2023-05-07T12:31:06;23.00;97.50
31735;DHT22;18313;48.518;9.124;2023-05-07T12:33:34;22.90;97.30
31735;DHT22;18313;48.518;9.124;2023-05-07T12:36:08;22.90;97.20
31735;DHT22;18313;48.518;9.124;2023-05-07T12:38:36;23.00;99.20
31735;DHT22;18313;48.518;9.124;2023-05-07T12:41:04;23.00;99.10
31735;DHT22;18313;48.518;9.124;2023-05-07T12:43:31;23.00;99.60
31735;DHT22;18313;48.518;9.124;2023-05-07T12:46:06;22.90;98.30
31735;DHT22;18313;48.518;9.124;2023-05-07T12:48:37;22.70;99.30
31735;DHT22;18313;48.518;9.124;2023-05-07T12:51:05;22.60;99.90
31735;DHT22;18313;48.518;9.124;2023-05-07T12:53:32;22.30;97.00
31735;DHT22;18313;48.518;9.124;2023-05-07T12:55:59;21.80;98.20
31735;DHT22;18313;48.518;9.124;2023-05-07T12:58:28;21.50;98.30
31735;DHT22;18313;48.518;9.124;2023-05-07T13:00:58;21.40;98.50
31735;DHT22;18313;48.518;9.124;2023-05-07T13:03:31;21.30;97.60
31735;DHT22;18313;48.518;9.124;2023-05-07T13:06:03;20.90;99.60
31735;DHT22;18313;48.518;9.124;2023-05-07T13:08:36;20.50;99.50
31735;DHT22;18313;48.518;9.124;2023-05-07T13:11:04;20.20;99.90
31735;DHT22;18313;48.518;9.124;2023-05-07T13:13:33;20.00;99.90
31735;DHT22;18313;48.518;9.124;2023-05-07T13:16:01;19.70;99.90
31735;DHT22;18313;48.518;9.124;2023-05-07T13:18:30;19.30;99.90
31735;DHT22;18313;48.518;9.124;2023-05-07T13:20:59;19.10;99.90
31735;DHT22;18313;48.518;9.124;2023-05-07T13:23:27;18.80;99.90
31735;DHT22;18313;48.518;9.124;2023-05-07T13:25:55;18.50;99.90
31735;DHT22;18313;48.518;9.124;2023-05-07T13:28:23;18.30;99.90
31735;DHT22;18313;48.518;9.124;2023-05-07T13:30:51;18.30;99.90
31735;DHT22;18313;48.518;9.124;2023-05-07T13:33:18;18.30;99.90
31735;DHT22;18313;48.518;9.124;2023-05-07T13:35:46;18.20;99.90
31735;DHT22;18313;48.518;9.124;2023-05-07T13:38:13;18.10;99.90
31735;DHT22;18313;48.518;9.124;2023-05-07T13:40:42;17.80;99.90
31735;DHT22;18313;48.518;9.124;2023-05-07T13:43:09;17.60;99.90
31735;DHT22;18313;48.518;9.124;2023-05-07T13:45:37;17.50;99.90
31735;DHT22;18313;48.518;9.124;2023-05-07T13:48:04;17.40;99.90
31735;DHT22;18313;48.518;9.124;2023-05-07T13:50:31;17.40;99.90
31735;DHT22;18313;48.518;9.124;2023-05-07T13:52:58;17.30;99.90
31735;DHT22;18313;48.518;9.124;2023-05-07T13:55:28;17.10;99.90
31735;DHT22;18313;48.518;9.124;2023-05-07T13:57:59;17.00;99.90
31735;DHT22;18313;48.518;9.124;2023-05-07T14:00:27;17.00;99.90
31735;DHT22;18313;48.518;9.124;2023-05-07T14:02:55;16.90;99.90
31735;DHT22;18313;48.518;9.124;2023-05-07T14:05:23;16.90;99.90
31735;DHT22;18313;48.518;9.124;2023-05-07T14:07:51;16.90;99.90
31735;DHT22;18313;48.518;9.124;2023-05-07T14:10:19;16.80;99.90
31735;DHT22;18313;48.518;9.124;2023-05-07T14:12:46;16.80;99.90
31735;DHT22;18313;48.518;9.124;2023-05-07T14:15:14;16.70;99.90
31735;DHT22;18313;48.518;9.124;2023-05-07T14:17:43;16.60;99.90
31735;DHT22;18313;48.518;9.124;2023-05-07T14:20:11;16.60;99.90
31735;DHT22;18313;48.518;9.124;2023-05-07T14:22:39;16.60;99.90
31735;DHT22;18313;48.518;9.124;2023-05-07T14:25:08;16.50;99.90
31735;DHT22;18313;48.518;9.124;2023-05-07T14:27:36;16.50;99.90
31735;DHT22;18313;48.518;9.124;2023-05-07T14:30:03;16.40;99.90
31735;DHT22;18313;48.518;9.124;2023-05-07T14:32:30;16.30;99.90
31735;DHT22;18313;48.518;9.124;2023-05-07T14:34:58;16.40;99.90
31735;DHT22;18313;48.518;9.124;2023-05-07T14:37:25;16.30;99.90
31735;DHT22;18313;48.518;9.124;2023-05-07T14:39:52;16.40;99.90
31735;DHT22;18313;48.518;9.124;2023-05-07T14:42:19;16.40;99.90
31735;DHT22;18313;48.518;9.124;2023-05-07T14:44:46;16.40;99.90
31735;DHT22;18313;48.518;9.124;2023-05-07T14:47:14;16.50;99.90
31735;DHT22;18313;48.518;9.124;2023-05-07T14:49:45;16.60;99.90
31735;DHT22;18313;48.518;9.124;2023-05-07T14:52:12;16.70;99.90
31735;DHT22;18313;48.518;9.124;2023-05-07T14:54:39;16.80;99.90
31735;DHT22;18313;48.518;9.124;2023-05-07T14:57:08;16.90;99.90
31735;DHT22;18313;48.518;9.124;2023-05-07T14:59:37;17.00;99.90
31735;DHT22;18313;48.518;9.124;2023-05-07T15:02:06;17.10;99.90
31735;DHT22;18313;48.518;9.124;2023-05-07T15:04:35;17.20;99.90
31735;DHT22;18313;48.518;9.124;2023-05-07T15:07:02;17.30;99.90
31735;DHT22;18313;48.518;9.124;2023-05-07T15:09:29;17.40;99.90
31735;DHT22;18313;48.518;9.124;2023-05-07T15:11:56;17.50;99.90
31735;DHT22;18313;48.518;9.124;2023-05-07T15:14:23;17.40;99.90
31735;DHT22;18313;48.518;9.124;2023-05-07T15:16:50;17.40;99.90
31735;DHT22;18313;48.518;9.124;2023-05-07T15:19:17;17.30;99.90
31735;DHT22;18313;48.518;9.124;2023-05-07T15:21:44;17.30;99.90
31735;DHT22;18313;48.518;9.124;2023-05-07T15:24:11;17.20;99.90
31735;DHT22;18313;48.518;9.124;2023-05-07T15:26:38;17.20;99.90
31735;DHT22;18313;48.518;9.124;2023-05-07T15:29:05;17.30;99.90
31735;DHT22;18313;48.518;9.124;2023-05-07T15:31:37;17.40;99.90
31735;DHT22;18313;48.518;9.124;2023-05-07T15:34:07;17.60;99.90
31735;DHT22;18313;48.518;9.124;2023-05-07T15:36:34;17.60;99.90
31735;DHT22;18313;48.518;9.124;2023-05-07T15:39:02;17.60;99.90
31735;DHT22;18313;48.518;9.124;2023-05-07T15:41:31;17.70;99.90
31735;DHT22;18313;48.518;9.124;2023-05-07T15:43:58;17.70;99.90
31735;DHT22;18313;48.518;9.124;2023-05-07T15:46:25;17.90;99.90
31735;DHT22;18313;48.518;9.124;2023-05-07T15:48:53;18.00;99.90